createdAt,value
2018-08-11T00:00:42.162Z,50.10
2018-08-11T00:05:47.246Z,50.10
2018-08-11T00:10:51.534Z,50.40
2018-08-11T00:15:57.049Z,50.70
2018-08-11T00:21:00.958Z,50.50
2018-08-11T00:26:05.273Z,50.60
2018-08-11T00:31:09.658Z,50.30
2018-08-11T00:36:14.101Z,50.10
2018-08-11T00:41:18.406Z,50.20
2018-08-11T00:46:22.991Z,50.30
2018-08-11T00:51:26.949Z,50.40
2018-08-11T00:56:30.921Z,50.60
2018-08-11T01:01:34.933Z,50.60
2018-08-11T01:06:40.400Z,50.70
2018-08-11T01:11:44.494Z,51.10
2018-08-11T01:16:48.362Z,51.00
2018-08-11T01:21:52.446Z,51.20
2018-08-11T01:26:56.542Z,51.50
2018-08-11T01:32:03.461Z,51.80
2018-08-11T01:37:07.288Z,52.20
2018-08-11T01:42:11.240Z,52.40
2018-08-11T01:47:15.131Z,52.40
2018-08-11T01:52:19.107Z,52.30
2018-08-11T01:57:23.033Z,52.30
2018-08-11T02:02:27.158Z,52.30
2018-08-11T02:07:31.099Z,52.80
2018-08-11T02:12:35.105Z,52.80
2018-08-11T02:17:38.991Z,53.00
2018-08-11T02:22:44.203Z,53.10
2018-08-11T02:27:48.123Z,53.50
2018-08-11T02:32:52.100Z,53.70
2018-08-11T02:37:56.115Z,53.60
2018-08-11T02:43:00.120Z,53.50
2018-08-11T02:48:04.463Z,53.40
2018-08-11T02:53:08.244Z,53.60
2018-08-11T02:58:11.943Z,54.80
2018-08-11T03:03:15.663Z,55.20
2018-08-11T03:08:19.388Z,58.40
2018-08-11T03:13:24.823Z,58.70
2018-08-11T03:18:28.671Z,61.80
2018-08-11T03:23:32.532Z,70.50
2018-08-11T03:28:36.597Z,76.00
2018-08-11T03:33:40.539Z,78.20
2018-08-11T03:38:44.286Z,78.50
2018-08-11T03:43:48.056Z,76.80
2018-08-11T03:48:51.679Z,78.90
2018-08-11T03:53:55.311Z,82.50
2018-08-11T03:58:59.155Z,84.80
2018-08-11T04:04:02.804Z,83.50
2018-08-11T04:09:08.555Z,85.90
2018-08-11T04:14:12.174Z,89.10
2018-08-11T04:19:15.810Z,90.70
2018-08-11T04:24:19.463Z,91.50
2018-08-11T04:29:23.184Z,92.60
2018-08-11T04:34:26.833Z,92.30
2018-08-11T04:39:30.473Z,92.80
2018-08-11T04:44:34.118Z,93.00
2018-08-11T04:49:37.771Z,93.30
2018-08-11T04:54:41.432Z,93.10
2018-08-11T04:59:45.082Z,93.20
2018-08-11T05:04:48.746Z,93.40
2018-08-11T05:09:52.410Z,92.90
2018-08-11T05:14:56.125Z,93.40
2018-08-11T05:19:59.898Z,93.80
2018-08-11T05:25:03.690Z,94.10
2018-08-11T05:30:08.326Z,93.80
2018-08-11T05:35:12.145Z,94.40
2018-08-11T05:40:15.855Z,93.70
2018-08-11T05:45:19.489Z,94.30
2018-08-11T05:50:23.275Z,94.30
2018-08-11T05:55:26.973Z,93.60
2018-08-11T06:00:30.753Z,93.40
2018-08-11T06:05:34.587Z,92.20
2018-08-11T06:10:38.419Z,92.10
2018-08-11T06:15:42.280Z,91.70
2018-08-11T06:20:46.061Z,91.70
2018-08-11T06:25:49.722Z,91.40
2018-08-11T06:30:53.386Z,90.60
2018-08-11T06:35:57.054Z,88.00
2018-08-11T06:41:00.800Z,86.20
2018-08-11T06:46:04.534Z,84.30
2018-08-11T06:51:08.181Z,81.30
2018-08-11T06:56:11.848Z,81.60
2018-08-11T07:01:15.555Z,80.20
2018-08-11T07:06:19.259Z,80.60
2018-08-11T07:11:22.944Z,79.10
2018-08-11T07:16:26.598Z,78.50
2018-08-11T07:21:30.203Z,78.50
2018-08-11T07:27:58.297Z,77.70
2018-08-11T07:33:01.956Z,78.70
2018-08-11T07:38:05.806Z,74.40
2018-08-11T07:43:09.471Z,73.70
2018-08-11T07:48:13.092Z,74.00
2018-08-11T07:53:16.771Z,72.20
2018-08-11T07:58:20.885Z,72.10
2018-08-11T08:03:24.540Z,72.70
2018-08-11T08:08:28.175Z,72.20
2018-08-11T08:13:31.830Z,74.50
2018-08-11T08:18:35.455Z,77.60
2018-08-11T08:23:39.187Z,76.90
2018-08-11T08:28:43.025Z,69.30
2018-08-11T08:33:46.849Z,70.40
2018-08-11T08:38:50.654Z,68.40
2018-08-11T08:43:54.319Z,70.00
2018-08-11T08:48:57.998Z,66.30
2018-08-11T08:54:01.627Z,63.40
2018-08-11T08:59:05.344Z,65.30
2018-08-11T09:04:09.023Z,61.20
2018-08-11T09:09:13.111Z,58.40
2018-08-11T09:14:16.742Z,58.40
2018-08-11T09:19:20.476Z,61.80
2018-08-11T09:24:24.147Z,63.00
2018-08-11T09:29:27.796Z,57.80
2018-08-11T09:34:31.387Z,60.90
2018-08-11T09:39:35.055Z,56.50
2018-08-11T09:44:38.685Z,54.60
2018-08-11T09:49:42.470Z,54.00
2018-08-11T09:54:46.120Z,56.90
2018-08-11T09:59:49.754Z,53.30
2018-08-11T10:04:53.464Z,55.70
2018-08-11T10:09:57.159Z,53.40
2018-08-11T10:15:00.888Z,50.40
2018-08-11T10:20:04.747Z,51.90
2018-08-11T10:25:08.483Z,51.60
2018-08-11T10:30:12.612Z,50.40
2018-08-11T10:35:16.328Z,50.10
2018-08-11T10:40:20.066Z,50.30
2018-08-11T10:45:23.667Z,47.90
2018-08-11T10:50:27.301Z,49.00
2018-08-11T10:55:31.297Z,48.80
2018-08-11T11:00:34.978Z,48.10
2018-08-11T11:05:38.598Z,47.30
2018-08-11T11:10:42.305Z,47.60
2018-08-11T11:15:45.925Z,48.10
2018-08-11T11:20:49.590Z,46.70
2018-08-11T11:25:53.210Z,43.90
2018-08-11T11:30:56.878Z,44.20
2018-08-11T11:36:00.539Z,44.80
2018-08-11T11:41:04.294Z,43.50
2018-08-11T11:46:07.993Z,42.70
2018-08-11T11:51:11.803Z,43.30
2018-08-11T11:56:15.474Z,42.30
2018-08-11T12:01:19.162Z,42.90
2018-08-11T12:06:22.962Z,43.40
2018-08-11T12:11:27.087Z,44.20
2018-08-11T12:16:30.780Z,43.60
2018-08-11T12:21:34.591Z,40.90
2018-08-11T12:26:38.326Z,41.60
2018-08-11T12:31:42.067Z,38.20
2018-08-11T12:36:46.271Z,36.00
2018-08-11T12:41:49.982Z,36.10
2018-08-11T12:46:53.725Z,36.80
2018-08-11T12:51:57.806Z,36.40
2018-08-11T12:57:01.440Z,38.20
2018-08-11T13:02:06.598Z,38.00
2018-08-11T13:07:10.519Z,40.10
2018-08-11T13:12:14.370Z,38.10
2018-08-11T13:17:18.004Z,34.60
2018-08-11T13:22:21.744Z,35.60
2018-08-11T13:27:25.394Z,38.20
2018-08-11T13:32:29.028Z,40.10
2018-08-11T13:37:32.663Z,41.50
2018-08-11T13:42:36.357Z,40.80
2018-08-11T13:47:40.074Z,40.30
2018-08-11T13:52:44.347Z,39.00
2018-08-11T13:57:48.297Z,35.20
2018-08-11T14:02:52.787Z,36.20
2018-08-11T14:07:56.442Z,34.60
2018-08-11T14:13:00.191Z,38.80
2018-08-11T14:18:03.926Z,38.00
2018-08-11T14:23:07.904Z,33.80
2018-08-11T14:28:11.800Z,29.10
2018-08-11T14:33:15.769Z,29.10
2018-08-11T14:38:19.839Z,28.40
2018-08-11T14:43:24.041Z,28.50
2018-08-11T14:48:27.945Z,30.30
2018-08-11T14:53:31.588Z,30.70
2018-08-11T14:58:35.277Z,29.70
2018-08-11T15:03:38.939Z,34.20
2018-08-11T15:08:42.679Z,35.70
2018-08-11T15:13:46.389Z,36.80
2018-08-11T15:18:50.028Z,37.80
2018-08-11T15:23:53.689Z,37.30
2018-08-11T15:28:57.352Z,36.70
2018-08-11T15:34:01.039Z,36.10
2018-08-11T15:39:08.347Z,37.50
2018-08-11T15:44:11.992Z,36.00
2018-08-11T15:49:15.627Z,35.70
2018-08-11T15:54:20.015Z,36.20
2018-08-11T15:59:23.965Z,36.50
2018-08-11T16:04:27.751Z,36.80
2018-08-11T16:09:31.495Z,31.40
2018-08-11T16:14:35.456Z,28.90
2018-08-11T16:19:39.376Z,28.70
2018-08-11T16:24:43.051Z,29.80
2018-08-11T16:29:46.822Z,30.80
2018-08-11T16:34:50.817Z,32.30
2018-08-11T16:39:54.677Z,29.60
2018-08-11T16:44:58.986Z,29.70
2018-08-11T16:50:02.669Z,29.20
2018-08-11T16:55:06.463Z,31.10
2018-08-11T17:00:12.063Z,31.90
2018-08-11T17:05:15.789Z,30.30
2018-08-11T17:10:19.505Z,30.30
2018-08-11T17:15:23.169Z,30.40
2018-08-11T17:20:26.965Z,30.70
2018-08-11T17:25:30.706Z,32.00
2018-08-11T17:30:34.373Z,33.60
2018-08-11T17:35:38.872Z,34.90
2018-08-11T17:40:42.506Z,36.40
2018-08-11T17:45:46.187Z,37.70
2018-08-11T17:50:49.836Z,39.40
2018-08-11T17:55:53.475Z,39.20
2018-08-11T18:00:57.134Z,39.50
2018-08-11T18:06:00.769Z,39.90
2018-08-11T18:11:04.614Z,40.10
2018-08-11T18:16:08.473Z,40.90
2018-08-11T18:21:12.142Z,41.30
2018-08-11T18:26:15.802Z,41.90
2018-08-11T18:31:19.553Z,42.30
2018-08-11T18:36:23.474Z,43.00
2018-08-11T18:41:27.126Z,43.60
2018-08-11T18:46:30.759Z,44.20
2018-08-11T18:51:34.408Z,44.50
2018-08-11T18:56:38.042Z,45.00
2018-08-11T19:01:41.737Z,45.80
2018-08-11T19:06:45.385Z,46.20
2018-08-11T19:11:49.036Z,46.90
2018-08-11T19:16:52.699Z,47.80
2018-08-11T19:21:56.386Z,48.50
2018-08-11T19:27:00.387Z,49.20
2018-08-11T19:32:04.227Z,50.40
2018-08-11T19:37:07.959Z,50.80
2018-08-11T19:42:11.711Z,51.10
2018-08-11T19:47:15.589Z,51.60
2018-08-11T19:52:19.520Z,52.60
2018-08-11T19:57:24.121Z,53.60
2018-08-11T20:02:28.036Z,53.30
2018-08-11T20:07:31.878Z,53.40
2018-08-11T20:12:36.049Z,55.00
2018-08-11T20:17:40.230Z,54.80
2018-08-11T20:22:44.191Z,56.10
2018-08-11T20:27:47.974Z,56.40
2018-08-11T20:32:51.840Z,57.20
2018-08-11T20:37:55.761Z,58.30
2018-08-11T20:42:59.815Z,60.10
2018-08-11T20:48:03.714Z,58.80
2018-08-11T20:53:07.575Z,60.20
2018-08-11T20:58:11.329Z,60.70
2018-08-11T21:03:15.234Z,60.70
2018-08-11T21:08:19.045Z,60.30
2018-08-11T21:13:22.904Z,59.80
2018-08-11T21:18:26.869Z,59.90
2018-08-11T21:23:30.714Z,60.40
2018-08-11T21:28:34.377Z,61.40
2018-08-11T21:33:38.087Z,62.80
2018-08-11T21:38:41.751Z,61.90
2018-08-11T21:43:46.234Z,61.70
2018-08-11T21:48:49.935Z,61.70
2018-08-11T21:53:53.615Z,62.50
2018-08-11T21:58:57.330Z,64.40
2018-08-11T22:04:01.095Z,65.00
2018-08-11T22:09:08.300Z,65.40
2018-08-11T22:14:12.057Z,65.40
2018-08-11T22:19:15.753Z,66.50
2018-08-11T22:24:19.455Z,67.10
2018-08-11T22:29:23.181Z,67.20
2018-08-11T22:34:26.846Z,66.30
2018-08-11T22:39:30.545Z,67.30
2018-08-11T22:44:34.215Z,68.20
2018-08-11T22:49:37.884Z,69.80
2018-08-11T22:54:41.655Z,71.40
2018-08-11T22:59:45.349Z,72.10
2018-08-11T23:04:49.043Z,73.40
2018-08-11T23:09:52.737Z,73.00
2018-08-11T23:14:56.447Z,73.10
2018-08-11T23:20:00.087Z,73.90
2018-08-11T23:25:04.466Z,74.30
2018-08-11T23:30:10.924Z,75.10
2018-08-11T23:35:14.750Z,74.90
2018-08-11T23:40:18.714Z,76.60
2018-08-11T23:45:22.380Z,77.40
2018-08-11T23:50:26.048Z,77.30
2018-08-11T23:55:30.165Z,77.90
